sensor_id;sensor_type;location;lat;lon;timestamp;P1;durP1;ratioP1;P2;durP2;ratioP2
77384;SDS011;66443;49.122;8.346;2024-03-23T00:52:55;9.73;;;8.10;;
77384;SDS011;66443;49.122;8.346;2024-03-23T00:55:20;8.97;;;8.20;;
77384;SDS011;66443;49.122;8.346;2024-03-23T00:57:45;10.30;;;9.37;;
77384;SDS011;66443;49.122;8.346;2024-03-23T01:00:10;9.35;;;8.43;;
77384;SDS011;66443;49.122;8.346;2024-03-23T01:02:36;13.07;;;9.53;;
77384;SDS011;66443;49.122;8.346;2024-03-23T01:05:01;10.90;;;8.90;;
77384;SDS011;66443;49.122;8.346;2024-03-23T01:07:27;8.87;;;8.10;;
77384;SDS011;66443;49.122;8.346;2024-03-23T01:09:52;8.70;;;7.77;;
77384;SDS011;66443;49.122;8.346;2024-03-23T01:12:18;9.00;;;8.13;;
77384;SDS011;66443;49.122;8.346;2024-03-23T01:14:43;7.57;;;6.87;;
77384;SDS011;66443;49.122;8.346;2024-03-23T01:17:08;7.70;;;7.00;;
77384;SDS011;66443;49.122;8.346;2024-03-23T01:19:33;7.07;;;6.32;;
77384;SDS011;66443;49.122;8.346;2024-03-23T01:21:58;7.30;;;6.70;;
77384;SDS011;66443;49.122;8.346;2024-03-23T01:24:23;7.47;;;6.73;;
77384;SDS011;66443;49.122;8.346;2024-03-23T01:26:49;10.27;;;7.70;;
77384;SDS011;66443;49.122;8.346;2024-03-23T01:29:14;7.60;;;6.97;;
77384;SDS011;66443;49.122;8.346;2024-03-23T01:31:39;7.87;;;7.07;;
77384;SDS011;66443;49.122;8.346;2024-03-23T01:34:04;8.97;;;7.10;;
77384;SDS011;66443;49.122;8.346;2024-03-23T01:36:29;7.50;;;6.80;;
77384;SDS011;66443;49.122;8.346;2024-03-23T01:38:54;8.70;;;7.00;;
77384;SDS011;66443;49.122;8.346;2024-03-23T01:41:20;8.93;;;7.33;;
77384;SDS011;66443;49.122;8.346;2024-03-23T01:43:45;7.27;;;6.57;;
77384;SDS011;66443;49.122;8.346;2024-03-23T01:46:10;15.23;;;7.23;;
77384;SDS011;66443;49.122;8.346;2024-03-23T01:48:35;7.47;;;6.60;;
77384;SDS011;66443;49.122;8.346;2024-03-23T01:51:00;6.97;;;6.37;;
77384;SDS011;66443;49.122;8.346;2024-03-23T01:53:26;8.30;;;7.60;;
77384;SDS011;66443;49.122;8.346;2024-03-23T01:55:51;8.00;;;6.97;;
77384;SDS011;66443;49.122;8.346;2024-03-23T01:58:16;8.73;;;7.80;;
77384;SDS011;66443;49.122;8.346;2024-03-23T02:00:41;7.57;;;6.80;;
77384;SDS011;66443;49.122;8.346;2024-03-23T02:03:22;9.20;;;7.03;;
77384;SDS011;66443;49.122;8.346;2024-03-23T02:05:49;8.37;;;6.57;;
77384;SDS011;66443;49.122;8.346;2024-03-23T02:08:14;7.17;;;5.70;;
77384;SDS011;66443;49.122;8.346;2024-03-23T02:10:39;7.33;;;6.63;;
77384;SDS011;66443;49.122;8.346;2024-03-23T02:13:04;7.37;;;6.03;;
77384;SDS011;66443;49.122;8.346;2024-03-23T02:15:29;6.60;;;6.00;;
77384;SDS011;66443;49.122;8.346;2024-03-23T02:17:55;7.33;;;6.83;;
77384;SDS011;66443;49.122;8.346;2024-03-23T02:20:20;7.13;;;6.53;;
77384;SDS011;66443;49.122;8.346;2024-03-23T02:22:45;5.77;;;5.27;;
77384;SDS011;66443;49.122;8.346;2024-03-23T02:25:10;6.50;;;5.90;;
77384;SDS011;66443;49.122;8.346;2024-03-23T02:27:35;5.53;;;4.97;;
77384;SDS011;66443;49.122;8.346;2024-03-23T02:30:01;5.73;;;5.20;;
77384;SDS011;66443;49.122;8.346;2024-03-23T02:32:26;7.70;;;5.50;;
77384;SDS011;66443;49.122;8.346;2024-03-23T02:34:51;5.47;;;4.97;;
77384;SDS011;66443;49.122;8.346;2024-03-23T02:37:16;5.43;;;5.03;;
77384;SDS011;66443;49.122;8.346;2024-03-23T02:39:41;6.03;;;5.43;;
77384;SDS011;66443;49.122;8.346;2024-03-23T02:42:06;8.60;;;5.47;;
77384;SDS011;66443;49.122;8.346;2024-03-23T02:44:32;10.13;;;5.60;;
77384;SDS011;66443;49.122;8.346;2024-03-23T02:46:57;6.67;;;5.17;;
77384;SDS011;66443;49.122;8.346;2024-03-23T02:49:22;5.73;;;5.23;;
77384;SDS011;66443;49.122;8.346;2024-03-23T02:51:47;6.27;;;5.77;;
77384;SDS011;66443;49.122;8.346;2024-03-23T02:54:13;5.80;;;5.27;;
77384;SDS011;66443;49.122;8.346;2024-03-23T02:56:38;5.63;;;5.13;;
77384;SDS011;66443;49.122;8.346;2024-03-23T02:59:04;6.07;;;5.50;;
77384;SDS011;66443;49.122;8.346;2024-03-23T03:01:29;5.60;;;5.20;;
77384;SDS011;66443;49.122;8.346;2024-03-23T03:03:54;5.60;;;5.17;;
77384;SDS011;66443;49.122;8.346;2024-03-23T03:06:23;6.07;;;5.20;;
77384;SDS011;66443;49.122;8.346;2024-03-23T03:08:48;6.50;;;5.90;;
77384;SDS011;66443;49.122;8.346;2024-03-23T03:11:13;6.30;;;5.70;;
77384;SDS011;66443;49.122;8.346;2024-03-23T03:13:38;5.90;;;5.32;;
77384;SDS011;66443;49.122;8.346;2024-03-23T03:16:03;6.07;;;5.57;;
77384;SDS011;66443;49.122;8.346;2024-03-23T03:18:33;7.53;;;5.90;;
77384;SDS011;66443;49.122;8.346;2024-03-23T03:20:58;6.97;;;6.37;;
77384;SDS011;66443;49.122;8.346;2024-03-23T03:23:23;6.87;;;6.27;;
77384;SDS011;66443;49.122;8.346;2024-03-23T03:25:48;6.93;;;6.22;;
77384;SDS011;66443;49.122;8.346;2024-03-23T03:28:14;7.90;;;6.83;;
77384;SDS011;66443;49.122;8.346;2024-03-23T03:30:39;7.80;;;6.13;;
77384;SDS011;66443;49.122;8.346;2024-03-23T03:33:04;7.07;;;6.37;;
77384;SDS011;66443;49.122;8.346;2024-03-23T03:35:30;8.13;;;7.07;;
77384;SDS011;66443;49.122;8.346;2024-03-23T03:37:55;7.23;;;6.60;;
77384;SDS011;66443;49.122;8.346;2024-03-23T03:40:20;8.43;;;7.32;;
77384;SDS011;66443;49.122;8.346;2024-03-23T03:42:45;7.83;;;6.97;;
77384;SDS011;66443;49.122;8.346;2024-03-23T03:45:11;6.97;;;6.37;;
77384;SDS011;66443;49.122;8.346;2024-03-23T03:47:36;8.47;;;7.40;;
77384;SDS011;66443;49.122;8.346;2024-03-23T03:50:01;7.97;;;7.17;;
77384;SDS011;66443;49.122;8.346;2024-03-23T03:52:26;9.43;;;8.47;;
77384;SDS011;66443;49.122;8.346;2024-03-23T03:54:51;8.43;;;7.17;;
77384;SDS011;66443;49.122;8.346;2024-03-23T03:57:16;8.60;;;7.80;;
77384;SDS011;66443;49.122;8.346;2024-03-23T03:59:41;11.90;;;8.90;;
77384;SDS011;66443;49.122;8.346;2024-03-23T04:02:07;9.27;;;8.30;;
77384;SDS011;66443;49.122;8.346;2024-03-23T04:04:32;9.17;;;7.53;;
77384;SDS011;66443;49.122;8.346;2024-03-23T04:07:00;11.80;;;7.97;;
77384;SDS011;66443;49.122;8.346;2024-03-23T04:09:26;10.17;;;7.60;;
77384;SDS011;66443;49.122;8.346;2024-03-23T04:11:51;9.57;;;8.17;;
77384;SDS011;66443;49.122;8.346;2024-03-23T04:14:16;9.77;;;8.77;;
77384;SDS011;66443;49.122;8.346;2024-03-23T04:16:41;9.87;;;8.77;;
77384;SDS011;66443;49.122;8.346;2024-03-23T04:19:06;9.53;;;8.63;;
77384;SDS011;66443;49.122;8.346;2024-03-23T04:21:31;9.37;;;8.47;;
77384;SDS011;66443;49.122;8.346;2024-03-23T04:23:57;8.27;;;7.57;;
77384;SDS011;66443;49.122;8.346;2024-03-23T04:26:22;9.53;;;8.60;;
77384;SDS011;66443;49.122;8.346;2024-03-23T04:28:47;8.47;;;7.57;;
77384;SDS011;66443;49.122;8.346;2024-03-23T04:31:12;8.80;;;7.57;;
77384;SDS011;66443;49.122;8.346;2024-03-23T04:33:38;7.83;;;7.13;;
77384;SDS011;66443;49.122;8.346;2024-03-23T04:36:03;8.43;;;7.63;;
77384;SDS011;66443;49.122;8.346;2024-03-23T04:38:28;6.77;;;6.07;;
77384;SDS011;66443;49.122;8.346;2024-03-23T04:40:54;6.87;;;5.17;;
77384;SDS011;66443;49.122;8.346;2024-03-23T04:43:19;6.00;;;5.40;;
77384;SDS011;66443;49.122;8.346;2024-03-23T04:45:45;5.70;;;5.20;;
77384;SDS011;66443;49.122;8.346;2024-03-23T04:48:10;5.00;;;4.50;;
77384;SDS011;66443;49.122;8.346;2024-03-23T04:50:35;6.30;;;4.57;;
77384;SDS011;66443;49.122;8.346;2024-03-23T04:53:00;4.57;;;4.07;;
77384;SDS011;66443;49.122;8.346;2024-03-23T04:55:25;4.07;;;3.67;;
77384;SDS011;66443;49.122;8.346;2024-03-23T04:57:51;3.27;;;2.97;;
77384;SDS011;66443;49.122;8.346;2024-03-23T05:00:16;4.37;;;3.67;;
77384;SDS011;66443;49.122;8.346;2024-03-23T05:02:44;4.03;;;3.60;;
77384;SDS011;66443;49.122;8.346;2024-03-23T05:05:10;3.57;;;3.27;;
77384;SDS011;66443;49.122;8.346;2024-03-23T05:07:35;2.50;;;2.30;;
77384;SDS011;66443;49.122;8.346;2024-03-23T05:10:00;2.77;;;2.57;;
77384;SDS011;66443;49.122;8.346;2024-03-23T05:12:25;2.63;;;2.43;;
77384;SDS011;66443;49.122;8.346;2024-03-23T05:14:50;1.90;;;1.77;;
77384;SDS011;66443;49.122;8.346;2024-03-23T05:17:16;2.53;;;1.90;;
77384;SDS011;66443;49.122;8.346;2024-03-23T05:19:41;1.50;;;1.40;;
77384;SDS011;66443;49.122;8.346;2024-03-23T05:22:07;2.47;;;1.70;;
77384;SDS011;66443;49.122;8.346;2024-03-23T05:24:32;1.70;;;1.53;;
77384;SDS011;66443;49.122;8.346;2024-03-23T05:26:57;1.50;;;1.40;;
77384;SDS011;66443;49.122;8.346;2024-03-23T05:29:24;1.80;;;1.50;;
77384;SDS011;66443;49.122;8.346;2024-03-23T05:31:51;1.40;;;1.30;;
77384;SDS011;66443;49.122;8.346;2024-03-23T05:34:16;1.47;;;1.30;;
77384;SDS011;66443;49.122;8.346;2024-03-23T05:36:41;1.60;;;1.47;;
77384;SDS011;66443;49.122;8.346;2024-03-23T05:39:07;1.40;;;1.30;;
77384;SDS011;66443;49.122;8.346;2024-03-23T05:41:32;1.57;;;1.47;;
77384;SDS011;66443;49.122;8.346;2024-03-23T05:43:58;1.93;;;1.10;;
77384;SDS011;66443;49.122;8.346;2024-03-23T05:46:23;1.53;;;1.43;;
77384;SDS011;66443;49.122;8.346;2024-03-23T05:48:49;1.30;;;1.20;;
77384;SDS011;66443;49.122;8.346;2024-03-23T05:51:15;2.37;;;1.40;;
77384;SDS011;66443;49.122;8.346;2024-03-23T05:53:41;1.97;;;1.30;;
77384;SDS011;66443;49.122;8.346;2024-03-23T05:56:06;1.10;;;1.10;;
77384;SDS011;66443;49.122;8.346;2024-03-23T05:58:32;1.77;;;1.10;;
77384;SDS011;66443;49.122;8.346;2024-03-23T06:00:57;1.17;;;1.17;;
77384;SDS011;66443;49.122;8.346;2024-03-23T06:03:24;1.00;;;1.00;;
77384;SDS011;66443;49.122;8.346;2024-03-23T06:05:49;1.30;;;1.20;;
77384;SDS011;66443;49.122;8.346;2024-03-23T06:08:14;3.28;;;1.30;;
77384;SDS011;66443;49.122;8.346;2024-03-23T06:10:40;1.30;;;1.20;;
77384;SDS011;66443;49.122;8.346;2024-03-23T06:13:05;1.20;;;1.10;;
77384;SDS011;66443;49.122;8.346;2024-03-23T06:15:30;1.77;;;1.30;;
77384;SDS011;66443;49.122;8.346;2024-03-23T06:17:56;0.97;;;0.97;;
77384;SDS011;66443;49.122;8.346;2024-03-23T06:20:21;0.73;;;0.73;;
77384;SDS011;66443;49.122;8.346;2024-03-23T06:22:47;1.63;;;1.00;;
77384;SDS011;66443;49.122;8.346;2024-03-23T06:25:12;1.00;;;1.00;;
77384;SDS011;66443;49.122;8.346;2024-03-23T06:27:37;0.90;;;0.90;;
77384;SDS011;66443;49.122;8.346;2024-03-23T06:30:04;6.37;;;1.57;;
77384;SDS011;66443;49.122;8.346;2024-03-23T06:32:29;1.00;;;1.00;;
77384;SDS011;66443;49.122;8.346;2024-03-23T06:34:54;0.73;;;0.60;;
77384;SDS011;66443;49.122;8.346;2024-03-23T06:37:20;0.63;;;0.63;;
77384;SDS011;66443;49.122;8.346;2024-03-23T06:39:45;0.87;;;0.80;;
77384;SDS011;66443;49.122;8.346;2024-03-23T06:42:11;0.60;;;0.60;;
77384;SDS011;66443;49.122;8.346;2024-03-23T06:44:36;0.52;;;0.52;;
77384;SDS011;66443;49.122;8.346;2024-03-23T06:47:01;0.50;;;0.50;;
77384;SDS011;66443;49.122;8.346;2024-03-23T06:49:27;0.50;;;0.50;;
77384;SDS011;66443;49.122;8.346;2024-03-23T06:51:52;0.53;;;0.53;;
77384;SDS011;66443;49.122;8.346;2024-03-23T06:54:18;0.50;;;0.50;;
77384;SDS011;66443;49.122;8.346;2024-03-23T06:56:44;0.67;;;0.53;;
77384;SDS011;66443;49.122;8.346;2024-03-23T06:59:09;0.50;;;0.50;;
77384;SDS011;66443;49.122;8.346;2024-03-23T07:01:34;1.63;;;0.90;;
77384;SDS011;66443;49.122;8.346;2024-03-23T07:04:00;2.00;;;0.90;;
77384;SDS011;66443;49.122;8.346;2024-03-23T07:06:25;0.57;;;0.57;;
77384;SDS011;66443;49.122;8.346;2024-03-23T07:08:51;0.60;;;0.60;;
77384;SDS011;66443;49.122;8.346;2024-03-23T07:11:20;0.57;;;0.57;;
77384;SDS011;66443;49.122;8.346;2024-03-23T07:13:45;0.50;;;0.50;;
77384;SDS011;66443;49.122;8.346;2024-03-23T07:16:11;0.50;;;0.50;;
77384;SDS011;66443;49.122;8.346;2024-03-23T07:18:36;0.40;;;0.40;;
77384;SDS011;66443;49.122;8.346;2024-03-23T07:21:01;0.70;;;0.70;;
77384;SDS011;66443;49.122;8.346;2024-03-23T07:23:27;0.63;;;0.63;;
77384;SDS011;66443;49.122;8.346;2024-03-23T07:25:58;0.67;;;0.67;;
77384;SDS011;66443;49.122;8.346;2024-03-23T07:28:23;0.77;;;0.77;;
77384;SDS011;66443;49.122;8.346;2024-03-23T07:30:59;0.57;;;0.57;;
77384;SDS011;66443;49.122;8.346;2024-03-23T07:33:24;1.73;;;0.80;;
77384;SDS011;66443;49.122;8.346;2024-03-23T07:35:49;1.10;;;1.00;;
77384;SDS011;66443;49.122;8.346;2024-03-23T07:38:14;0.97;;;0.97;;
77384;SDS011;66443;49.122;8.346;2024-03-23T07:40:39;1.83;;;1.20;;
77384;SDS011;66443;49.122;8.346;2024-03-23T07:43:05;1.10;;;1.00;;
77384;SDS011;66443;49.122;8.346;2024-03-23T07:45:30;1.77;;;0.97;;
77384;SDS011;66443;49.122;8.346;2024-03-23T07:47:55;1.57;;;0.83;;
77384;SDS011;66443;49.122;8.346;2024-03-23T07:50:21;2.03;;;1.08;;
77384;SDS011;66443;49.122;8.346;2024-03-23T07:52:46;4.07;;;2.07;;
77384;SDS011;66443;49.122;8.346;2024-03-23T07:55:11;3.60;;;1.30;;
77384;SDS011;66443;49.122;8.346;2024-03-23T07:57:36;2.30;;;1.37;;
77384;SDS011;66443;49.122;8.346;2024-03-23T08:00:01;1.87;;;1.30;;
77384;SDS011;66443;49.122;8.346;2024-03-23T08:02:27;5.90;;;1.67;;
77384;SDS011;66443;49.122;8.346;2024-03-23T08:04:53;2.13;;;1.67;;
77384;SDS011;66443;49.122;8.346;2024-03-23T08:07:18;5.87;;;2.40;;
77384;SDS011;66443;49.122;8.346;2024-03-23T08:09:43;3.80;;;1.80;;
77384;SDS011;66443;49.122;8.346;2024-03-23T08:12:08;4.70;;;2.20;;
77384;SDS011;66443;49.122;8.346;2024-03-23T08:14:34;3.13;;;1.87;;
77384;SDS011;66443;49.122;8.346;2024-03-23T08:16:59;9.40;;;2.23;;
77384;SDS011;66443;49.122;8.346;2024-03-23T08:19:24;3.50;;;1.83;;
77384;SDS011;66443;49.122;8.346;2024-03-23T08:21:49;3.80;;;1.97;;
77384;SDS011;66443;49.122;8.346;2024-03-23T08:24:16;3.50;;;2.13;;
77384;SDS011;66443;49.122;8.346;2024-03-23T08:26:41;3.20;;;2.13;;
77384;SDS011;66443;49.122;8.346;2024-03-23T08:29:06;2.25;;;2.05;;
77384;SDS011;66443;49.122;8.346;2024-03-23T08:31:32;4.57;;;2.20;;
77384;SDS011;66443;49.122;8.346;2024-03-23T08:33:57;3.57;;;2.50;;
77384;SDS011;66443;49.122;8.346;2024-03-23T08:36:22;7.03;;;2.40;;
77384;SDS011;66443;49.122;8.346;2024-03-23T08:38:48;4.83;;;2.40;;
77384;SDS011;66443;49.122;8.346;2024-03-23T08:41:15;5.33;;;2.50;;
77384;SDS011;66443;49.122;8.346;2024-03-23T08:43:41;3.63;;;2.60;;
77384;SDS011;66443;49.122;8.346;2024-03-23T08:46:10;3.07;;;2.30;;
77384;SDS011;66443;49.122;8.346;2024-03-23T08:48:35;7.83;;;3.67;;
77384;SDS011;66443;49.122;8.346;2024-03-23T08:51:04;4.83;;;2.63;;
77384;SDS011;66443;49.122;8.346;2024-03-23T08:53:30;3.30;;;2.60;;
77384;SDS011;66443;49.122;8.346;2024-03-23T08:55:56;5.47;;;3.50;;
77384;SDS011;66443;49.122;8.346;2024-03-23T08:58:21;5.73;;;2.60;;
77384;SDS011;66443;49.122;8.346;2024-03-23T09:00:47;2.60;;;2.20;;
77384;SDS011;66443;49.122;8.346;2024-03-23T09:03:12;4.90;;;2.57;;
77384;SDS011;66443;49.122;8.346;2024-03-23T09:05:40;5.60;;;2.47;;
77384;SDS011;66443;49.122;8.346;2024-03-23T09:08:06;4.53;;;2.07;;
77384;SDS011;66443;49.122;8.346;2024-03-23T09:10:31;3.07;;;2.87;;
77384;SDS011;66443;49.122;8.346;2024-03-23T09:12:56;4.10;;;3.70;;
77384;SDS011;66443;49.122;8.346;2024-03-23T09:15:22;3.63;;;2.77;;
77384;SDS011;66443;49.122;8.346;2024-03-23T09:17:47;3.50;;;2.60;;
77384;SDS011;66443;49.122;8.346;2024-03-23T09:20:12;4.47;;;2.57;;
77384;SDS011;66443;49.122;8.346;2024-03-23T09:22:37;3.37;;;2.30;;
77384;SDS011;66443;49.122;8.346;2024-03-23T09:25:02;4.37;;;2.40;;
77384;SDS011;66443;49.122;8.346;2024-03-23T09:27:30;4.90;;;2.27;;
77384;SDS011;66443;49.122;8.346;2024-03-23T09:29:55;4.27;;;2.60;;
77384;SDS011;66443;49.122;8.346;2024-03-23T09:32:20;5.93;;;2.93;;
77384;SDS011;66443;49.122;8.346;2024-03-23T09:34:45;4.27;;;2.33;;
77384;SDS011;66443;49.122;8.346;2024-03-23T09:37:10;5.70;;;2.30;;
77384;SDS011;66443;49.122;8.346;2024-03-23T09:39:36;5.53;;;2.70;;
77384;SDS011;66443;49.122;8.346;2024-03-23T09:42:01;3.03;;;2.50;;
77384;SDS011;66443;49.122;8.346;2024-03-23T09:44:27;3.90;;;2.70;;
77384;SDS011;66443;49.122;8.346;2024-03-23T09:46:54;7.87;;;3.27;;
77384;SDS011;66443;49.122;8.346;2024-03-23T09:49:19;6.00;;;2.37;;
77384;SDS011;66443;49.122;8.346;2024-03-23T09:51:45;6.23;;;2.37;;
77384;SDS011;66443;49.122;8.346;2024-03-23T09:54:10;2.27;;;2.07;;
77384;SDS011;66443;49.122;8.346;2024-03-23T09:56:35;5.33;;;2.17;;
77384;SDS011;66443;49.122;8.346;2024-03-23T09:59:03;4.50;;;2.00;;
77384;SDS011;66443;49.122;8.346;2024-03-23T10:01:34;5.53;;;2.30;;
77384;SDS011;66443;49.122;8.346;2024-03-23T10:04:06;3.77;;;2.30;;
77384;SDS011;66443;49.122;8.346;2024-03-23T10:06:31;5.50;;;2.50;;
77384;SDS011;66443;49.122;8.346;2024-03-23T10:08:57;6.10;;;3.57;;
77384;SDS011;66443;49.122;8.346;2024-03-23T10:11:22;4.70;;;2.83;;
77384;SDS011;66443;49.122;8.346;2024-03-23T10:13:47;4.27;;;3.10;;
77384;SDS011;66443;49.122;8.346;2024-03-23T10:16:20;3.00;;;2.70;;
77384;SDS011;66443;49.122;8.346;2024-03-23T10:18:46;6.40;;;2.50;;
77384;SDS011;66443;49.122;8.346;2024-03-23T10:21:11;4.13;;;2.30;;
77384;SDS011;66443;49.122;8.346;2024-03-23T10:23:37;3.63;;;2.43;;
77384;SDS011;66443;49.122;8.346;2024-03-23T10:28:58;2.73;;;2.30;;
77384;SDS011;66443;49.122;8.346;2024-03-23T10:31:26;2.60;;;2.40;;
77384;SDS011;66443;49.122;8.346;2024-03-23T10:33:51;5.80;;;2.97;;
77384;SDS011;66443;49.122;8.346;2024-03-23T10:36:19;3.07;;;2.53;;
77384;SDS011;66443;49.122;8.346;2024-03-23T10:38:45;2.63;;;2.20;;
77384;SDS011;66443;49.122;8.346;2024-03-23T10:41:10;4.83;;;2.23;;
77384;SDS011;66443;49.122;8.346;2024-03-23T10:43:36;2.97;;;2.33;;
77384;SDS011;66443;49.122;8.346;2024-03-23T10:46:01;4.23;;;2.43;;
77384;SDS011;66443;49.122;8.346;2024-03-23T10:48:27;3.90;;;2.23;;
77384;SDS011;66443;49.122;8.346;2024-03-23T10:50:52;3.47;;;2.30;;
77384;SDS011;66443;49.122;8.346;2024-03-23T10:53:18;4.80;;;2.50;;
77384;SDS011;66443;49.122;8.346;2024-03-23T10:55:43;2.43;;;2.23;;
77384;SDS011;66443;49.122;8.346;2024-03-23T10:58:08;3.23;;;2.13;;
77384;SDS011;66443;49.122;8.346;2024-03-23T11:00:37;3.87;;;2.00;;
77384;SDS011;66443;49.122;8.346;2024-03-23T11:05:46;4.57;;;2.03;;
77384;SDS011;66443;49.122;8.346;2024-03-23T11:08:13;5.10;;;1.77;;
77384;SDS011;66443;49.122;8.346;2024-03-23T11:10:54;1.67;;;1.47;;
77384;SDS011;66443;49.122;8.346;2024-03-23T11:13:36;3.43;;;1.33;;
77384;SDS011;66443;49.122;8.346;2024-03-23T11:16:12;4.17;;;1.80;;
77384;SDS011;66443;49.122;8.346;2024-03-23T11:18:38;2.27;;;1.20;;
77384;SDS011;66443;49.122;8.346;2024-03-23T11:21:03;3.73;;;1.53;;
77384;SDS011;66443;49.122;8.346;2024-03-23T11:23:28;2.27;;;1.57;;
77384;SDS011;66443;49.122;8.346;2024-03-23T11:25:54;3.60;;;1.60;;
77384;SDS011;66443;49.122;8.346;2024-03-23T11:28:19;2.83;;;1.50;;
77384;SDS011;66443;49.122;8.346;2024-03-23T11:30:44;2.40;;;1.33;;
77384;SDS011;66443;49.122;8.346;2024-03-23T11:33:09;3.77;;;1.53;;
77384;SDS011;66443;49.122;8.346;2024-03-23T11:35:36;1.67;;;1.27;;
77384;SDS011;66443;49.122;8.346;2024-03-23T11:38:02;4.50;;;1.80;;
77384;SDS011;66443;49.122;8.346;2024-03-23T11:40:28;4.53;;;2.00;;
77384;SDS011;66443;49.122;8.346;2024-03-23T11:42:58;3.97;;;1.50;;
77384;SDS011;66443;49.122;8.346;2024-03-23T11:45:24;1.80;;;1.40;;
77384;SDS011;66443;49.122;8.346;2024-03-23T11:48:01;3.07;;;1.60;;
77384;SDS011;66443;49.122;8.346;2024-03-23T11:50:26;4.43;;;1.73;;
77384;SDS011;66443;49.122;8.346;2024-03-23T11:52:51;3.20;;;2.07;;
77384;SDS011;66443;49.122;8.346;2024-03-23T11:55:16;3.00;;;1.80;;
77384;SDS011;66443;49.122;8.346;2024-03-23T11:57:41;3.47;;;1.70;;
77384;SDS011;66443;49.122;8.346;2024-03-23T12:00:28;2.47;;;1.50;;
77384;SDS011;66443;49.122;8.346;2024-03-23T12:02:54;3.57;;;1.40;;
77384;SDS011;66443;49.122;8.346;2024-03-23T12:05:25;2.80;;;1.50;;
77384;SDS011;66443;49.122;8.346;2024-03-23T12:07:51;3.33;;;1.53;;
77384;SDS011;66443;49.122;8.346;2024-03-23T12:10:16;3.10;;;1.80;;
77384;SDS011;66443;49.122;8.346;2024-03-23T12:12:43;3.03;;;1.63;;
77384;SDS011;66443;49.122;8.346;2024-03-23T12:15:09;2.80;;;1.30;;
77384;SDS011;66443;49.122;8.346;2024-03-23T12:17:34;5.30;;;2.10;;
77384;SDS011;66443;49.122;8.346;2024-03-23T12:20:00;3.97;;;2.67;;
77384;SDS011;66443;49.122;8.346;2024-03-23T12:22:25;3.03;;;2.70;;
77384;SDS011;66443;49.122;8.346;2024-03-23T12:24:51;7.70;;;2.13;;
77384;SDS011;66443;49.122;8.346;2024-03-23T12:27:16;8.63;;;2.27;;
77384;SDS011;66443;49.122;8.346;2024-03-23T12:29:42;4.07;;;3.67;;
77384;SDS011;66443;49.122;8.346;2024-03-23T12:32:10;3.77;;;2.67;;
77384;SDS011;66443;49.122;8.346;2024-03-23T12:34:35;6.10;;;2.73;;
77384;SDS011;66443;49.122;8.346;2024-03-23T12:37:01;4.10;;;2.87;;
77384;SDS011;66443;49.122;8.346;2024-03-23T12:39:26;7.30;;;2.57;;
77384;SDS011;66443;49.122;8.346;2024-03-23T12:41:51;3.27;;;2.80;;
77384;SDS011;66443;49.122;8.346;2024-03-23T12:44:17;4.13;;;3.17;;
77384;SDS011;66443;49.122;8.346;2024-03-23T12:46:43;4.17;;;2.50;;
77384;SDS011;66443;49.122;8.346;2024-03-23T12:49:08;6.67;;;2.73;;
77384;SDS011;66443;49.122;8.346;2024-03-23T12:51:33;2.43;;;1.37;;
77384;SDS011;66443;49.122;8.346;2024-03-23T12:53:58;5.83;;;1.53;;
77384;SDS011;66443;49.122;8.346;2024-03-23T12:56:24;2.70;;;0.87;;
77384;SDS011;66443;49.122;8.346;2024-03-23T12:58:49;2.23;;;0.70;;
77384;SDS011;66443;49.122;8.346;2024-03-23T13:01:16;2.87;;;1.00;;
77384;SDS011;66443;49.122;8.346;2024-03-23T13:03:41;2.03;;;1.13;;
77384;SDS011;66443;49.122;8.346;2024-03-23T13:06:07;2.37;;;1.20;;
77384;SDS011;66443;49.122;8.346;2024-03-23T13:08:33;2.30;;;1.30;;
77384;SDS011;66443;49.122;8.346;2024-03-23T13:10:58;2.23;;;0.90;;
77384;SDS011;66443;49.122;8.346;2024-03-23T13:13:24;0.90;;;0.90;;
77384;SDS011;66443;49.122;8.346;2024-03-23T13:15:49;3.00;;;0.90;;
77384;SDS011;66443;49.122;8.346;2024-03-23T13:18:15;2.03;;;1.00;;
77384;SDS011;66443;49.122;8.346;2024-03-23T13:20:40;2.50;;;0.73;;
77384;SDS011;66443;49.122;8.346;2024-03-23T13:23:05;2.17;;;0.70;;
77384;SDS011;66443;49.122;8.346;2024-03-23T13:25:30;0.70;;;0.70;;
77384;SDS011;66443;49.122;8.346;2024-03-23T13:27:55;2.03;;;0.97;;
77384;SDS011;66443;49.122;8.346;2024-03-23T13:30:21;1.47;;;0.70;;
77384;SDS011;66443;49.122;8.346;2024-03-23T13:32:46;2.35;;;1.10;;
77384;SDS011;66443;49.122;8.346;2024-03-23T13:35:11;3.17;;;1.00;;
77384;SDS011;66443;49.122;8.346;2024-03-23T13:37:36;1.73;;;0.97;;
77384;SDS011;66443;49.122;8.346;2024-03-23T13:40:01;1.43;;;0.90;;
77384;SDS011;66443;49.122;8.346;2024-03-23T13:42:26;1.03;;;0.90;;
77384;SDS011;66443;49.122;8.346;2024-03-23T13:44:52;2.83;;;1.00;;
77384;SDS011;66443;49.122;8.346;2024-03-23T13:47:17;0.77;;;0.70;;
77384;SDS011;66443;49.122;8.346;2024-03-23T13:49:43;1.07;;;0.60;;
77384;SDS011;66443;49.122;8.346;2024-03-23T13:52:09;1.07;;;0.83;;
77384;SDS011;66443;49.122;8.346;2024-03-23T13:54:34;2.63;;;0.83;;
77384;SDS011;66443;49.122;8.346;2024-03-23T13:56:59;2.00;;;0.80;;
77384;SDS011;66443;49.122;8.346;2024-03-23T13:59:24;1.13;;;0.70;;
77384;SDS011;66443;49.122;8.346;2024-03-23T14:01:50;1.10;;;1.00;;
77384;SDS011;66443;49.122;8.346;2024-03-23T14:04:16;0.90;;;0.70;;
77384;SDS011;66443;49.122;8.346;2024-03-23T14:06:47;0.70;;;0.70;;
77384;SDS011;66443;49.122;8.346;2024-03-23T14:09:13;1.90;;;1.00;;
77384;SDS011;66443;49.122;8.346;2024-03-23T14:11:39;0.83;;;0.83;;
77384;SDS011;66443;49.122;8.346;2024-03-23T14:14:06;1.80;;;1.60;;
77384;SDS011;66443;49.122;8.346;2024-03-23T14:16:31;2.13;;;1.07;;
77384;SDS011;66443;49.122;8.346;2024-03-23T14:18:57;1.60;;;1.20;;
77384;SDS011;66443;49.122;8.346;2024-03-23T14:21:22;1.83;;;1.00;;
77384;SDS011;66443;49.122;8.346;2024-03-23T14:23:47;0.73;;;0.73;;
77384;SDS011;66443;49.122;8.346;2024-03-23T14:26:12;2.00;;;1.27;;
77384;SDS011;66443;49.122;8.346;2024-03-23T14:28:38;3.33;;;0.90;;
77384;SDS011;66443;49.122;8.346;2024-03-23T14:31:03;3.00;;;0.90;;
77384;SDS011;66443;49.122;8.346;2024-03-23T14:33:35;1.40;;;0.97;;
77384;SDS011;66443;49.122;8.346;2024-03-23T14:36:00;2.93;;;1.10;;
77384;SDS011;66443;49.122;8.346;2024-03-23T14:38:25;1.80;;;0.80;;
77384;SDS011;66443;49.122;8.346;2024-03-23T14:40:50;2.43;;;0.80;;
77384;SDS011;66443;49.122;8.346;2024-03-23T14:43:19;0.93;;;0.60;;
77384;SDS011;66443;49.122;8.346;2024-03-23T14:48:27;2.90;;;1.20;;
77384;SDS011;66443;49.122;8.346;2024-03-23T14:50:56;1.10;;;0.70;;
77384;SDS011;66443;49.122;8.346;2024-03-23T14:53:21;1.57;;;0.90;;
77384;SDS011;66443;49.122;8.346;2024-03-23T14:55:46;0.97;;;0.70;;
77384;SDS011;66443;49.122;8.346;2024-03-23T14:58:14;1.13;;;1.00;;
77384;SDS011;66443;49.122;8.346;2024-03-23T15:00:39;1.90;;;0.73;;
77384;SDS011;66443;49.122;8.346;2024-03-23T15:03:04;0.83;;;0.83;;
77384;SDS011;66443;49.122;8.346;2024-03-23T15:05:30;1.60;;;1.30;;
77384;SDS011;66443;49.122;8.346;2024-03-23T15:07:55;4.17;;;0.70;;
77384;SDS011;66443;49.122;8.346;2024-03-23T15:10:20;1.63;;;0.87;;
77384;SDS011;66443;49.122;8.346;2024-03-23T15:12:45;0.97;;;0.83;;
77384;SDS011;66443;49.122;8.346;2024-03-23T15:15:10;1.60;;;0.77;;
77384;SDS011;66443;49.122;8.346;2024-03-23T15:17:37;2.13;;;1.13;;
77384;SDS011;66443;49.122;8.346;2024-03-23T15:20:06;2.27;;;1.00;;
77384;SDS011;66443;49.122;8.346;2024-03-23T15:22:31;2.10;;;0.87;;
77384;SDS011;66443;49.122;8.346;2024-03-23T15:24:56;2.30;;;0.93;;
77384;SDS011;66443;49.122;8.346;2024-03-23T15:27:22;2.58;;;1.20;;
77384;SDS011;66443;49.122;8.346;2024-03-23T15:29:47;3.03;;;1.10;;
77384;SDS011;66443;49.122;8.346;2024-03-23T15:32:12;2.40;;;1.00;;
77384;SDS011;66443;49.122;8.346;2024-03-23T15:34:39;7.47;;;1.50;;
77384;SDS011;66443;49.122;8.346;2024-03-23T15:37:04;1.60;;;1.00;;
77384;SDS011;66443;49.122;8.346;2024-03-23T15:39:29;1.93;;;1.10;;